Slide Mountain Weather observations

Data are for 10 minute period ending at time listed.
 Day   Time   Solar   Ave.   Ave.  Ave.  Vector  Max.    Baro.  
  of    of     Rad.   Air    Rel.  Wind   Wind   Wind   Press.  
Year   Day            Temp.  Hum.  Speed  Dir.   Gust           
2026   (PST)  Kw/m2    F      %     mph   deg.    mph     mb.   
-----------------------------------------------------------------
 126    0:00   0.00   40.8    59   18.1   338     22.8    713.5 
 126    0:10   0.00   40.7    60   18.8   330     26.7    713.5 
 126    0:20   0.00   40.8    59   19.8   330     25.1    713.5 
 126    0:30   0.00   40.8    58   20.2   330     27.5    713.5 
 126    0:40   0.00   40.9    59   19.3   328     25.8    713.6 
 126    0:50   0.00   40.7    60   18.1   329     25.3    713.6 
 126    1:00   0.00   40.7    61   19.0   326     23.9    713.7 
 126    1:10   0.00   40.7    61   20.0   328     24.3    713.7 
 126    1:20   0.00   40.6    61   20.6   330     28.1    713.7 
 126    1:30   0.00   40.4    63   20.1   328     24.5    713.8 
 126    1:40   0.00   40.2    62   19.3   325     25.8    713.7 
 126    1:50   0.00   40.2    62   19.6   327     24.7    713.8 
 126    2:00   0.00   40.1    61   19.5   327     23.1    713.8 
 126    2:10   0.00   40.1    61   18.5   329     21.7    713.9 
 126    2:20   0.00   40.1    60   18.9   331     25.1    714.0 
 126    2:30   0.00   40.3    56   16.9   334     21.3    714.1 
 126    2:40   0.00   40.4    54   16.0   342     20.9    714.2 
 126    2:50   0.00   40.0    56   15.4   333     18.8    714.2 
 126    3:00   0.00   40.1    56   17.6   330     22.4    714.3 
 126    3:10   0.00   40.3    53   14.8   334     22.1    714.4 
 126    3:20   0.00   40.0    56   15.9   347     20.3    714.4 
 126    3:30   0.00   39.8    58   17.6   357     24.5    714.4 
 126    3:40   0.00   39.6    60   18.9   355     28.8    714.4 
 126    3:50   0.00   39.6    61   19.1   356     23.9    714.5 
 126    4:00   0.00   39.4    62   18.4     3     25.3    714.6 
 126    4:10   0.00   39.2    63   18.2   349     23.8    714.7 
 126    4:20   0.00   39.0    65   18.4   347     23.4    714.7 
 126    4:30   0.00   38.7    65   16.7   337     20.5    714.8 
 126    4:40   0.00   39.0    63   19.9   332     24.0    714.9 
 126    4:50   0.00   39.0    63   19.7   333     23.6    714.9 
 126    5:00   0.01   39.0    63   18.6   334     24.0    715.1 
 126    5:10   0.01   39.1    63   16.1   332     22.7    715.2 
 126    5:20   0.03   39.4    62   14.7   330     19.6    715.3 
 126    5:30   0.05   39.9    61   13.8   345     17.4    715.4 
 126    5:40   0.07   40.1    61   18.2    12     25.7    715.5 
 126    5:50   0.11   40.1    62   17.7     5     23.4    715.6 
 126    6:00   0.13   40.3    62   16.1   355     22.5    715.7 
 126    6:10   0.16   40.6    61   18.3    10     23.9    715.8 
 126    6:20   0.19   40.9    60   19.4    18     26.3    715.9 
 126    6:30   0.21   41.1    61   16.4    25     23.1    716.0 
 126    6:40   0.24   41.8    60   14.4    34     23.6    716.1 
 126    6:50   0.27   41.9    62   13.3    30     22.4    716.2 
 126    7:00   0.30   42.4    61   10.9    30     17.1    716.3 
 126    7:10   0.33   42.7    63   10.3    40     16.7    716.3 
 126    7:20   0.36   42.7    62   10.3    16     17.8    716.4 
 126    7:30   0.39   42.7    60    9.9     8     14.5    716.4 
 126    7:40   0.42   43.2    58    9.9   360     13.9    716.5 
 126    7:50   0.45   43.6    58    7.9     2     12.3    716.6 
 126    8:00   0.47   44.4    57    6.7    10     14.1    716.6 
 126    8:10   0.51   45.0    58    5.2    10     10.1    716.7 
 126    8:20   0.53   44.7    69    4.4    17      9.2    716.7 
 126    8:30   0.56   44.2    62    8.4   335     14.4    716.7 
 126    8:40   0.59   44.6    59    9.0   344     14.9    716.8 
 126    8:50   0.62   44.1    63    8.8     5     16.0    716.9 
 126    9:00   0.62   44.2    64    8.9     8     16.0    716.9 
 126    9:10   0.60   43.9    67    7.5    22     13.4    717.0 
 126    9:20   0.60   44.7    65    6.4    27     15.7    717.1 
 126    9:30   0.69   43.6    72    8.8    18     14.9    717.2 
 126    9:40   0.59   44.0    68    9.7    25     15.9    717.3 
 126    9:50   0.73   44.2    67   10.4    26     16.9    717.4 
 126   10:00   0.69   45.3    58    7.3    36     14.1    717.5 
 126   10:10   0.77   44.4    61    8.6    14     15.3    717.6 
 126   10:20   0.79   45.0    54    6.2     4     14.8    717.6 
 126   10:30   0.80   46.0    51    5.6    31     13.5    717.6 
 126   10:40   0.81   45.1    55   10.0    28     16.4    717.7 
 126   10:50   0.82   45.8    50    6.3    34     13.7    717.8 
 126   11:00   0.83   46.2    46   10.2    38     19.3    717.8 
 126   11:10   0.84   46.6    40    9.4    30     23.1    717.8 
 126   11:20   0.84   47.9    44    4.8    61      8.0    717.8 
 126   11:30   0.85   48.0    45    5.5    40     12.0    717.9 
 126   11:40   0.85   47.7    43    5.5    33     10.8    717.9 
 126   11:50   0.85   47.7    42    8.4    30     20.4    717.9 
 126   12:00   0.85   47.7    40    5.0    12     12.3    717.9 
 126   12:10   0.86   47.9    37    8.7   346     17.8    717.9 
 126   12:20   0.86   47.4    36    9.7   359     17.3    717.9 
 126   12:30   0.85   47.4    34    9.5    15     16.7    717.9 
 126   12:40   0.85   47.8    34   10.8   358     17.1    717.9 
 126   12:50   0.84   47.9    34    7.5     8     12.8    718.0 
 126   13:00   0.84   48.5    33    7.4    25     13.3    718.0 
 126   13:10   0.83   48.9    31    6.6   335     12.8    717.9 

Return to Slide Mountain graphs page.


Western Regional Climate Center,wrcc@dri.edu